Sunday, December 16, 2018, 3:31 AM GMT
Back to Local

CWFQ, Frelighsburg

Location: , , Canada Lat: 45.05
Local Time: 3:31 AM GMT ( 3:31 GMT) Lon: -72.833
Time Zone: GMT Elev: 498 ft

Show me the last for .
Show Coded

Time T Td Feel RH Dir Speed Gust Alt SLP Vis Weather Sky Remarks
2018-12-16 03:00 33 28 - 81 90° 2 - - 30.28 0 None
2018-12-16 02:00 33 29 - 86 50° 1 - - 30.29 0 None
2018-12-16 01:00 31 31 - 97 70° 2 - - 30.29 0 None
2018-12-16 00:00 31 31 - 96 10° 1 - - 30.29 0 None
2018-12-15 23:00 33 31 - 90 350° 2 - - 30.27 0 None
2018-12-15 22:00 34 31 - 89 330° 2 - - 30.27 0 None
2018-12-15 21:00 35 30 - 79 330° 1 - - 30.25 0 None
2018-12-15 20:00 38 30 - 73 290° 2 - - 30.24 0 None
2018-12-15 19:00 37 30 35 75 320° 3 - - 30.22 0 None
2018-12-15 18:00 37 33 32 86 330° 6 - - 30.19 0 None
2018-12-15 17:00 38 31 34 74 320° 5 - - 30.21 0 None
2018-12-15 16:00 37 33 33 84 260° 5 - - 30.21 0 None
2018-12-15 15:00 37 31 34 81 260° 3 - - 30.21 0 None
2018-12-15 14:00 36 32 33 84 240° 3 - - 30.21 0 None
2018-12-15 13:00 35 31 - 85 280° 2 - - 30.20 0 None
2018-12-15 12:00 35 31 30 88 320° 5 - - 30.18 0 None
2018-12-15 11:00 34 33 - 95 270° 2 - - 30.17 0 None
2018-12-15 10:00 35 35 33 97 310° 3 - - 30.13 0 None
2018-12-15 09:00 37 36 34 96 300° 3 - - 30.11 0 None
2018-12-15 08:00 37 36 33 96 260° 5 - - 30.10 0 None
2018-12-15 07:00 38 35 36 86 200° 3 - - 30.07 0 None
2018-12-15 06:00 39 37 36 93 200° 3 - - 30.06 0 None
2018-12-15 05:00 37 37 32 100 180° 6 - - 30.06 0 None
2018-12-15 04:00 38 35 33 87 180° 7 - - 30.08 0 1-hr Precip Total: 0.01"

Support USWX by starting your Amazon purchase here.